Terminal Aerodrome Forecast
Issued by NWS St Louis, MO

Home | Current Version | Previous Version | Text Only | Print | Product List | Glossary On
Versions: 1 2 3 4 5 6 7 8 9 10 11 12 13 14 15 16 17 18 19
000
FTUS43 KLSX 030937 AAA
TAFCOU
TAF AMD
KCOU 030937Z 0310/0406 03005KT 6SM BR SCT025 OVC040
     FM031600 05005KT P6SM BKN025
     FM031800 01008KT P6SM BKN045=

USA.gov is the U.S. government's official web portal to all federal, state and local government web resources and services.